createdAt,value
2022-10-06T03:47:46.894Z,9.90
2022-10-06T03:50:13.677Z,9.80
2022-10-06T03:52:40.394Z,9.80
2022-10-06T03:55:07.430Z,9.70
2022-10-06T03:57:34.129Z,9.70
2022-10-06T04:00:06.030Z,9.70
2022-10-06T04:02:32.904Z,9.60
2022-10-06T04:04:59.689Z,9.50
2022-10-06T04:07:26.574Z,9.30
2022-10-06T04:09:53.271Z,9.40
2022-10-06T04:12:20.114Z,9.50
2022-10-06T04:14:46.832Z,9.70
2022-10-06T04:17:13.528Z,9.80
2022-10-06T04:19:40.281Z,9.80
2022-10-06T04:22:07.026Z,9.80
2022-10-06T04:24:33.794Z,9.90
2022-10-06T04:27:20.440Z,9.90
2022-10-06T04:29:47.161Z,9.90
2022-10-06T04:32:14.755Z,9.80
2022-10-06T04:34:41.489Z,9.80
2022-10-06T04:37:08.932Z,9.80
2022-10-06T04:39:37.742Z,9.70
2022-10-06T04:42:04.453Z,9.60
2022-10-06T04:44:31.111Z,9.60
2022-10-06T04:46:57.982Z,9.60
2022-10-06T04:49:24.820Z,9.60
2022-10-06T04:51:51.532Z,9.50
2022-10-06T04:54:19.433Z,9.50
2022-10-06T04:56:46.551Z,9.50
2022-10-06T04:59:13.328Z,9.50
2022-10-06T05:01:40.035Z,9.70
2022-10-06T05:04:07.555Z,9.70
2022-10-06T05:06:37.432Z,9.70
2022-10-06T05:09:07.161Z,9.70
2022-10-06T05:11:34.457Z,9.70
2022-10-06T05:14:01.541Z,9.70
2022-10-06T05:16:30.713Z,9.60
2022-10-06T05:18:59.826Z,9.70
2022-10-06T05:21:29.283Z,9.60
2022-10-06T05:23:56.358Z,9.60
2022-10-06T05:26:26.665Z,9.60
2022-10-06T05:28:53.602Z,9.50
2022-10-06T05:31:23.029Z,9.50
2022-10-06T05:33:50.275Z,9.40
2022-10-06T05:36:19.303Z,9.20
2022-10-06T05:38:47.090Z,9.30
2022-10-06T05:41:14.977Z,9.30
2022-10-06T05:43:42.615Z,9.30
2022-10-06T05:46:17.395Z,9.30
2022-10-06T05:48:52.595Z,9.30
2022-10-06T05:51:20.838Z,9.40
2022-10-06T05:53:48.697Z,9.50
2022-10-06T05:56:16.958Z,9.60
2022-10-06T05:58:45.966Z,9.70
2022-10-06T06:01:17.509Z,9.80
2022-10-06T06:03:54.544Z,9.80
2022-10-06T06:06:22.393Z,9.80
2022-10-06T06:08:53.706Z,9.70
2022-10-06T06:11:25.345Z,9.70
2022-10-06T06:14:00.226Z,9.80
2022-10-06T06:16:28.930Z,9.80
2022-10-06T06:18:55.683Z,10.00
2022-10-06T06:21:22.389Z,10.20
2022-10-06T06:23:50.147Z,10.20
2022-10-06T06:26:19.743Z,10.30
2022-10-06T06:28:47.860Z,10.40
2022-10-06T06:31:21.107Z,10.50
2022-10-06T06:33:50.515Z,10.60
2022-10-06T06:36:38.773Z,10.70
2022-10-06T06:39:08.370Z,10.80
2022-10-06T06:41:39.980Z,10.90
2022-10-06T06:44:13.995Z,11.00
2022-10-06T06:46:43.400Z,11.20
2022-10-06T06:49:11.944Z,11.30
2022-10-06T06:51:41.497Z,11.40
2022-10-06T06:54:09.650Z,11.40
2022-10-06T06:56:36.743Z,11.50
2022-10-06T06:59:12.060Z,11.50
2022-10-06T07:01:44.752Z,11.60
2022-10-06T07:04:13.555Z,11.80
2022-10-06T07:06:41.146Z,12.00
2022-10-06T07:09:09.129Z,12.20
2022-10-06T07:11:39.956Z,12.40
2022-10-06T07:14:12.485Z,12.60
2022-10-06T07:16:57.535Z,12.80
2022-10-06T07:19:43.077Z,12.90
2022-10-06T07:22:28.376Z,13.10
2022-10-06T07:25:12.733Z,13.30
2022-10-06T07:27:43.065Z,13.60
2022-10-06T07:30:12.714Z,13.90
2022-10-06T07:32:39.369Z,14.20
2022-10-06T07:35:07.132Z,14.60
2022-10-06T07:37:35.429Z,15.00
2022-10-06T07:40:03.280Z,15.50
2022-10-06T07:42:30.121Z,16.00
2022-10-06T07:45:15.646Z,16.50
2022-10-06T07:47:42.301Z,17.00
2022-10-06T07:50:09.396Z,17.50
2022-10-06T07:52:39.319Z,17.80
2022-10-06T07:55:06.873Z,18.10
2022-10-06T07:57:35.331Z,18.60
2022-10-06T08:00:07.103Z,19.10
2022-10-06T08:02:35.830Z,19.70
2022-10-06T08:05:04.214Z,19.80
2022-10-06T08:07:31.164Z,19.40
2022-10-06T08:09:57.921Z,19.20
2022-10-06T08:12:33.442Z,19.80
2022-10-06T08:15:11.454Z,20.60
2022-10-06T08:17:38.700Z,21.70
2022-10-06T08:20:07.667Z,22.50
2022-10-06T08:22:36.178Z,23.20
2022-10-06T08:25:07.161Z,24.20
2022-10-06T08:27:35.327Z,24.90
2022-10-06T08:30:03.734Z,25.30
2022-10-06T08:32:30.404Z,26.10
2022-10-06T08:34:57.787Z,26.90
2022-10-06T08:37:27.173Z,27.20
2022-10-06T08:39:54.977Z,27.40
2022-10-06T08:42:37.056Z,27.60
2022-10-06T08:45:10.577Z,27.90
2022-10-06T08:47:37.656Z,28.40
2022-10-06T08:50:12.103Z,29.00
2022-10-06T08:52:55.498Z,29.50
2022-10-06T08:55:43.163Z,29.90
2022-10-06T08:58:28.892Z,30.30
2022-10-06T09:01:01.012Z,30.50
2022-10-06T09:03:30.026Z,29.90
2022-10-06T09:06:17.956Z,30.00
2022-10-06T09:08:55.379Z,30.60
2022-10-06T09:11:54.608Z,30.80
2022-10-06T09:14:32.022Z,31.50
2022-10-06T09:17:04.958Z,32.10
2022-10-06T09:19:49.951Z,32.50
2022-10-06T09:22:19.841Z,32.70
2022-10-06T09:24:50.421Z,33.00
2022-10-06T09:27:23.901Z,33.40
2022-10-06T09:29:51.547Z,33.70
2022-10-06T09:32:20.670Z,33.50
2022-10-06T09:34:51.669Z,34.10
2022-10-06T09:37:18.980Z,34.70
2022-10-06T09:39:51.125Z,34.90
2022-10-06T09:42:35.712Z,35.30
2022-10-06T09:45:07.524Z,35.60
2022-10-06T09:47:39.028Z,35.70
2022-10-06T09:50:20.244Z,35.40
2022-10-06T09:52:49.650Z,35.90
2022-10-06T09:55:19.053Z,36.40
2022-10-06T09:57:54.018Z,36.80
2022-10-06T10:00:28.272Z,37.00
2022-10-06T10:03:01.342Z,37.30
2022-10-06T10:05:31.532Z,37.40
2022-10-06T10:08:09.176Z,37.00
2022-10-06T10:10:37.318Z,37.00
2022-10-06T10:13:17.618Z,37.00
2022-10-06T10:16:02.581Z,35.70
2022-10-06T10:18:31.780Z,34.40
2022-10-06T10:21:10.412Z,33.60
2022-10-06T10:23:43.148Z,32.80
2022-10-06T10:26:27.132Z,31.60
2022-10-06T10:28:59.342Z,30.30
2022-10-06T10:31:45.375Z,29.30
2022-10-06T10:34:27.370Z,28.70
2022-10-06T10:36:57.723Z,28.60
2022-10-06T10:39:41.983Z,28.80
2022-10-06T10:42:33.465Z,28.10
2022-10-06T10:45:04.366Z,27.90
2022-10-06T10:47:41.876Z,27.10
2022-10-06T10:50:37.499Z,27.40
2022-10-06T10:53:42.750Z,28.10
2022-10-06T10:56:11.986Z,28.90
2022-10-06T10:58:43.725Z,29.70
2022-10-06T11:01:41.278Z,30.80
2022-10-06T11:04:13.796Z,31.50
2022-10-06T11:07:05.366Z,32.30
2022-10-06T11:09:55.953Z,32.80
2022-10-06T11:12:44.475Z,32.70
2022-10-06T11:15:26.619Z,33.30
2022-10-06T11:17:59.124Z,33.70
2022-10-06T11:20:36.675Z,33.80
2022-10-06T11:23:06.701Z,33.10
2022-10-06T11:25:51.376Z,31.80
2022-10-06T11:28:23.805Z,31.20
2022-10-06T11:30:50.458Z,30.10
2022-10-06T11:33:24.204Z,29.90
2022-10-06T11:35:51.772Z,29.60
2022-10-06T11:38:37.912Z,29.90
2022-10-06T11:41:25.830Z,30.10
2022-10-06T11:44:15.894Z,29.90
2022-10-06T11:47:07.107Z,30.20
2022-10-06T11:49:55.697Z,30.90
2022-10-06T11:52:22.360Z,31.30
2022-10-06T11:54:49.008Z,31.00
2022-10-06T11:57:30.578Z,31.60
2022-10-06T12:00:16.351Z,32.00
2022-10-06T12:02:45.415Z,31.40
2022-10-06T12:05:54.201Z,30.70
2022-10-06T12:08:01.961Z,30.20
2022-10-06T12:10:28.721Z,30.10
2022-10-06T12:13:53.254Z,30.20
2022-10-06T12:19:19.747Z,29.90
2022-10-06T12:21:46.590Z,28.90
2022-10-06T12:24:27.173Z,28.40
2022-10-06T12:27:12.396Z,28.10
2022-10-06T12:29:43.309Z,28.10
2022-10-06T12:32:19.049Z,28.00
2022-10-06T12:34:57.650Z,28.30
2022-10-06T12:37:54.582Z,28.70
2022-10-06T12:40:47.019Z,29.00
2022-10-06T12:43:17.438Z,29.10
2022-10-06T12:45:52.679Z,29.10
2022-10-06T12:48:37.448Z,28.70
2022-10-06T12:51:06.609Z,28.30
2022-10-06T12:53:40.414Z,27.70
2022-10-06T12:56:39.909Z,27.30
2022-10-06T12:59:24.939Z,26.90
2022-10-06T13:02:07.881Z,26.80
2022-10-06T13:04:51.333Z,27.00
2022-10-06T13:07:24.298Z,27.30
2022-10-06T13:09:52.756Z,27.70
2022-10-06T13:12:22.454Z,27.80
2022-10-06T13:18:19.451Z,28.20
2022-10-06T13:20:54.563Z,27.80
2022-10-06T13:23:26.329Z,27.70
2022-10-06T13:26:06.289Z,27.70
2022-10-06T13:28:46.838Z,27.60
2022-10-06T13:31:31.590Z,27.40
2022-10-06T13:34:05.467Z,27.00
2022-10-06T13:36:35.498Z,26.60
2022-10-06T13:39:13.163Z,26.50
2022-10-06T13:41:49.845Z,26.20
2022-10-06T13:44:19.258Z,26.30
2022-10-06T13:46:54.793Z,26.70
2022-10-06T13:49:30.534Z,27.00
2022-10-06T13:52:02.814Z,27.20
2022-10-06T13:54:48.048Z,27.40
2022-10-06T13:57:44.135Z,27.70
2022-10-06T14:00:29.886Z,28.10
2022-10-06T14:03:06.410Z,28.10
2022-10-06T14:05:44.510Z,28.10
2022-10-06T14:08:11.158Z,28.30
2022-10-06T14:10:40.882Z,28.20
2022-10-06T14:13:15.813Z,28.10
2022-10-06T14:15:49.504Z,28.30
2022-10-06T14:18:26.729Z,28.50
2022-10-06T14:20:55.615Z,28.60
2022-10-06T14:23:49.738Z,28.60
2022-10-06T14:26:18.489Z,28.50
2022-10-06T14:28:48.182Z,28.30
2022-10-06T14:31:15.161Z,28.40
2022-10-06T14:33:42.343Z,28.20
2022-10-06T14:36:17.062Z,27.80
2022-10-06T14:38:45.637Z,27.00
2022-10-06T14:41:16.790Z,26.30
2022-10-06T14:43:48.479Z,25.80
2022-10-06T14:46:15.524Z,25.30
2022-10-06T14:48:42.265Z,25.00
2022-10-06T14:51:09.598Z,24.70
2022-10-06T14:53:39.291Z,24.60
2022-10-06T14:56:10.022Z,24.50
2022-10-06T14:58:43.467Z,24.50
2022-10-06T15:01:13.891Z,24.50
2022-10-06T15:03:42.663Z,24.40
2022-10-06T15:06:30.799Z,24.40
2022-10-06T15:08:59.022Z,24.40
2022-10-06T15:11:27.261Z,24.60
2022-10-06T15:13:56.903Z,24.90
2022-10-06T15:16:23.809Z,25.10
2022-10-06T15:18:51.570Z,25.20
2022-10-06T15:21:19.244Z,25.30
2022-10-06T15:23:48.012Z,25.40
2022-10-06T15:26:33.277Z,25.50
2022-10-06T15:29:03.284Z,25.30
2022-10-06T15:31:44.067Z,25.10
2022-10-06T15:34:13.431Z,25.10
2022-10-06T15:36:41.871Z,25.00
2022-10-06T15:39:12.762Z,24.90
2022-10-06T15:41:41.268Z,24.80
2022-10-06T15:44:08.609Z,24.70
2022-10-06T15:46:39.437Z,24.40
2022-10-06T15:49:12.082Z,24.20
2022-10-06T15:51:48.754Z,23.80
2022-10-06T15:54:20.936Z,23.60
2022-10-06T15:56:59.024Z,23.50
2022-10-06T15:59:27.184Z,23.40
2022-10-06T16:02:00.620Z,23.20
2022-10-06T16:04:33.127Z,23.10
2022-10-06T16:07:00.169Z,22.90
2022-10-06T16:09:29.101Z,22.70
2022-10-06T16:11:57.549Z,22.60
2022-10-06T16:14:25.738Z,22.60
2022-10-06T16:16:53.031Z,22.40
2022-10-06T16:19:20.170Z,22.40
2022-10-06T16:21:48.982Z,22.30
2022-10-06T16:24:17.473Z,22.30
2022-10-06T16:26:46.909Z,22.20
2022-10-06T16:29:14.535Z,22.00
2022-10-06T16:31:42.024Z,21.90
2022-10-06T16:34:09.122Z,21.80
2022-10-06T16:36:39.189Z,21.70
2022-10-06T16:39:07.489Z,21.50
2022-10-06T16:41:34.361Z,21.20
2022-10-06T16:44:01.168Z,21.00
2022-10-06T16:46:29.734Z,20.80
2022-10-06T16:48:58.896Z,20.50
2022-10-06T16:51:30.883Z,20.30
2022-10-06T16:53:59.746Z,20.10
2022-10-06T16:56:30.441Z,20.10
2022-10-06T16:59:00.045Z,20.00
2022-10-06T17:01:28.778Z,19.90
2022-10-06T17:04:08.484Z,19.80
2022-10-06T17:06:39.098Z,19.50
2022-10-06T17:09:11.518Z,19.30
2022-10-06T17:11:38.301Z,19.10
2022-10-06T17:14:05.357Z,18.90
2022-10-06T17:16:35.513Z,18.80
2022-10-06T17:19:02.412Z,18.70
2022-10-06T17:21:45.465Z,18.50
2022-10-06T17:24:13.593Z,18.50
2022-10-06T17:26:42.803Z,18.50
2022-10-06T17:29:14.311Z,18.50
2022-10-06T17:31:42.941Z,18.50
2022-10-06T17:34:12.745Z,18.40
2022-10-06T17:36:40.929Z,18.40
2022-10-06T17:39:10.675Z,18.40
2022-10-06T17:41:40.506Z,18.40
2022-10-06T17:44:13.563Z,18.40
2022-10-06T17:46:45.236Z,18.50
2022-10-06T17:49:14.908Z,18.50
2022-10-06T17:51:45.041Z,18.60
2022-10-06T17:54:16.224Z,18.60
2022-10-06T17:56:44.637Z,18.60
2022-10-06T17:59:17.510Z,18.50
2022-10-06T18:01:45.390Z,18.50
2022-10-06T18:04:16.757Z,18.40
2022-10-06T18:06:46.106Z,18.30
2022-10-06T18:09:13.402Z,18.30
2022-10-06T18:11:45.880Z,18.20
2022-10-06T18:14:17.746Z,18.30
2022-10-06T18:16:45.986Z,18.30
2022-10-06T18:19:13.187Z,18.30
2022-10-06T18:21:41.641Z,18.30
2022-10-06T18:24:17.237Z,18.20
2022-10-06T18:26:48.861Z,18.10
2022-10-06T18:29:17.474Z,18.10
2022-10-06T18:31:44.924Z,18.00
2022-10-06T18:36:59.435Z,18.00
2022-10-06T18:39:26.358Z,17.90
2022-10-06T18:41:53.335Z,17.90
2022-10-06T18:44:40.029Z,18.00
2022-10-06T18:47:25.319Z,17.90
2022-10-06T18:49:52.902Z,17.90
2022-10-06T18:52:20.879Z,17.90
2022-10-06T18:54:48.313Z,17.80
2022-10-06T18:57:14.964Z,17.70
2022-10-06T18:59:41.670Z,17.70
2022-10-06T19:02:08.519Z,17.70
2022-10-06T19:04:35.904Z,17.70
2022-10-06T19:07:02.556Z,17.70
2022-10-06T19:09:29.261Z,17.70
2022-10-06T19:11:57.946Z,17.60
2022-10-06T19:14:27.620Z,17.60
2022-10-06T19:17:03.266Z,17.60
2022-10-06T19:19:31.463Z,17.60
2022-10-06T19:22:00.378Z,17.60
2022-10-06T19:24:57.398Z,17.50
2022-10-06T19:27:25.003Z,17.40
2022-10-06T19:29:54.344Z,17.30
2022-10-06T19:32:27.122Z,17.30
2022-10-06T19:34:57.808Z,17.20
2022-10-06T19:37:26.897Z,17.10
2022-10-06T19:39:53.793Z,17.10
2022-10-06T19:42:39.653Z,17.00
2022-10-06T19:45:07.677Z,17.00
2022-10-06T19:47:34.500Z,16.90
2022-10-06T19:50:05.866Z,16.90
2022-10-06T19:52:36.986Z,16.90
2022-10-06T19:55:04.373Z,16.80
2022-10-06T19:57:33.636Z,16.80
2022-10-06T20:00:00.612Z,16.70
2022-10-06T20:02:28.827Z,16.70
2022-10-06T20:04:56.393Z,16.70
2022-10-06T20:07:27.733Z,16.60
2022-10-06T20:09:55.425Z,16.60
2022-10-06T20:12:25.140Z,16.50
2022-10-06T20:14:53.406Z,16.40
2022-10-06T20:17:20.796Z,16.30
2022-10-06T20:19:47.521Z,16.20
2022-10-06T20:22:14.185Z,16.20
2022-10-06T20:24:41.193Z,16.20
2022-10-06T20:27:08.753Z,16.30
2022-10-06T20:29:35.419Z,16.30
2022-10-06T20:32:02.322Z,16.30
2022-10-06T20:34:31.822Z,16.30
2022-10-06T20:37:00.045Z,16.20
2022-10-06T20:39:45.194Z,16.20
2022-10-06T20:42:15.339Z,16.20
2022-10-06T20:44:43.329Z,16.10
2022-10-06T20:47:12.225Z,16.10
2022-10-06T20:49:39.281Z,16.10
2022-10-06T20:52:06.333Z,16.10
2022-10-06T20:54:35.872Z,16.10
2022-10-06T20:57:04.866Z,16.20
2022-10-06T20:59:32.286Z,16.10
2022-10-06T21:02:00.006Z,16.00
2022-10-06T21:04:27.562Z,15.90
2022-10-06T21:06:54.507Z,15.90
2022-10-06T21:09:21.584Z,15.80
2022-10-06T21:11:48.564Z,15.90
2022-10-06T21:14:15.732Z,15.80
2022-10-06T21:16:44.898Z,15.80
2022-10-06T21:19:14.451Z,15.80
2022-10-06T21:21:43.083Z,15.80
2022-10-06T21:24:10.244Z,15.80
2022-10-06T21:26:38.706Z,15.80
2022-10-06T21:29:05.702Z,15.80
2022-10-06T21:31:33.170Z,15.90
2022-10-06T21:34:01.272Z,15.90
2022-10-06T21:36:31.191Z,15.90
2022-10-06T21:38:59.324Z,15.80
2022-10-06T21:41:28.945Z,15.80
2022-10-06T21:43:57.651Z,15.80
2022-10-06T21:46:28.800Z,15.80
2022-10-06T21:48:58.975Z,15.80
2022-10-06T21:51:28.380Z,15.80
2022-10-06T21:53:56.896Z,15.80
2022-10-06T21:56:24.504Z,15.80
2022-10-06T21:58:52.968Z,15.80
2022-10-06T22:01:22.172Z,15.70
2022-10-06T22:03:49.511Z,15.70
2022-10-06T22:06:19.638Z,15.60
2022-10-06T22:08:46.517Z,15.70
2022-10-06T22:11:21.736Z,15.60
2022-10-06T22:13:52.720Z,15.50
2022-10-06T22:16:21.592Z,15.50
2022-10-06T22:18:49.125Z,15.40
2022-10-06T22:21:30.029Z,15.40
2022-10-06T22:24:00.073Z,15.40
2022-10-06T22:26:28.572Z,15.30
2022-10-06T22:28:57.357Z,15.20
2022-10-06T22:31:26.337Z,15.20
2022-10-06T22:33:58.416Z,15.20
2022-10-06T22:36:27.099Z,15.20
2022-10-06T22:38:55.204Z,15.30
2022-10-06T22:41:22.532Z,15.20
2022-10-06T22:43:52.183Z,15.10
2022-10-06T22:46:18.820Z,15.10
2022-10-06T22:48:45.489Z,15.10
2022-10-06T22:51:12.109Z,15.00
2022-10-06T22:53:38.729Z,15.10
2022-10-06T22:56:05.491Z,15.10
2022-10-06T22:58:32.146Z,15.10
